This is the latest recevied weather packets stored in our database for station/object OK1TBM-13. If no packets are shown the sender has not sent any weather packets the latest 10 day(s).
| Time | Temp. | Humidity | Pressure | Rain* | Wind** | Luminosity | Snow |
|---|---|---|---|---|---|---|---|
| 1787999402 | 22.22° C | 61% | 1014.6 hPa | 0 mm | - | 199 W/m² | - |
| 1787998801 | 22.78° C | 60% | 1014.9 hPa | 0 mm | - | 900 W/m² | - |
| 1787998501 | 22.78° C | 65% | 1014.6 hPa | 0 mm | - | 797 W/m² | - |
| 1787998201 | 22.22° C | 65% | 1014.6 hPa | 0 mm | - | 745 W/m² | - |
| 1787997901 | 21.67° C | 64% | 1014.6 hPa | 0 mm | - | 729 W/m² | - |
| 1787997601 | 22.22° C | 65% | 1014.6 hPa | 0 mm | - | 796 W/m² | - |
| 1787997301 | 22.22° C | 65% | 1014.6 hPa | 0 mm | - | 796 W/m² | - |
| 1787997002 | 21.67° C | 68% | 1014.6 hPa | 0 mm | - | 220 W/m² | - |
| 1787996702 | 21.67° C | 68% | 1014.6 hPa | 0 mm | - | 220 W/m² | - |
| 1787996401 | 21.11° C | 68% | 1014.6 hPa | 0 mm | - | 770 W/m² | - |
| 1787996101 | 21.67° C | 70% | 1014.9 hPa | 0 mm | - | 756 W/m² | - |
| 1787995801 | 21.11° C | 72% | 1014.9 hPa | 0 mm | - | 682 W/m² | - |
| 1787995501 | 20° C | 75% | 1014.9 hPa | 0 mm | - | 183 W/m² | - |
| 1787995201 | 20.56° C | 75% | 1014.9 hPa | 0 mm | - | 192 W/m² | - |
| 1787994901 | 20.56° C | 73% | 1014.9 hPa | 0 mm | - | 374 W/m² | - |
| 1787994601 | 21.11° C | 71% | 1014.9 hPa | 0 mm | - | 728 W/m² | - |
| 1787994307 | 19.44° C | 79% | 1014.9 hPa | 0 mm | - | 180 W/m² | - |
| 1787994001 | 20° C | 77% | 1014.9 hPa | 0 mm | - | 176 W/m² | - |
| 1787993701 | 20° C | 77% | 1014.9 hPa | 0 mm | - | 176 W/m² | - |
| 1787993401 | 20° C | 74% | 1014.9 hPa | 0 mm | - | 93 W/m² | - |
| 1787993101 | 20.56° C | 72% | 1014.9 hPa | 0 mm | - | 783 W/m² | - |
| 1787992801 | 20.56° C | 72% | 1014.9 hPa | 0 mm | - | 783 W/m² | - |
| 1787992501 | 20.56° C | 76% | 1014.6 hPa | 0 mm | - | 704 W/m² | - |
| 1787992201 | 19.44° C | 78% | 1014.6 hPa | 0 mm | - | 193 W/m² | - |
| 1787991901 | 19.44° C | 78% | 1014.6 hPa | 0 mm | - | 193 W/m² | - |
* Rain latest hour (hover to see other rain measurements)
** Current wind speed in m/s (hover to see current wind gust speed)